createdAt,value
2023-05-11T00:02:47.382Z,8.93
2023-05-11T00:05:52.137Z,9.37
2023-05-11T00:08:55.406Z,9.13
2023-05-11T00:11:58.770Z,9.77
2023-05-11T00:15:01.698Z,9.07
2023-05-11T00:18:04.939Z,10.37
2023-05-11T00:21:09.705Z,9.33
2023-05-11T00:24:12.832Z,10.33
2023-05-11T00:27:16.037Z,9.43
2023-05-11T00:30:19.773Z,9.03
2023-05-11T00:33:23.126Z,9.60
2023-05-11T00:36:27.817Z,9.90
2023-05-11T00:39:31.059Z,10.27
2023-05-11T00:42:34.353Z,9.77
2023-05-11T00:45:37.477Z,10.30
2023-05-11T00:48:40.779Z,9.10
2023-05-11T00:51:45.599Z,11.17
2023-05-11T00:54:49.565Z,10.30
2023-05-11T00:57:52.724Z,10.20
2023-05-11T01:00:55.853Z,11.03
2023-05-11T01:03:59.000Z,10.73
2023-05-11T01:07:09.626Z,9.93
2023-05-11T01:10:20.576Z,9.43
2023-05-11T01:13:32.025Z,10.13
2023-05-11T01:16:41.547Z,10.67
2023-05-11T01:19:49.689Z,10.30
2023-05-11T01:23:16.278Z,10.33
2023-05-11T01:26:43.603Z,10.33
2023-05-11T01:29:57.242Z,10.63
2023-05-11T01:33:08.499Z,12.00
2023-05-11T01:36:13.789Z,15.33
2023-05-11T01:39:20.774Z,15.90
2023-05-11T01:42:29.497Z,17.07
2023-05-11T01:45:35.316Z,16.83
2023-05-11T01:48:43.756Z,14.80
2023-05-11T01:51:51.513Z,13.03
2023-05-11T01:54:57.268Z,14.17
2023-05-11T01:58:02.051Z,13.73
2023-05-11T02:01:06.705Z,12.90
2023-05-11T02:04:13.351Z,11.80
2023-05-11T02:07:20.242Z,11.60
2023-05-11T02:10:27.084Z,11.73
2023-05-11T02:13:31.377Z,11.70
2023-05-11T02:16:35.152Z,11.60
2023-05-11T02:19:40.712Z,13.87
2023-05-11T02:22:44.584Z,14.40
2023-05-11T02:25:49.692Z,12.87
2023-05-11T02:28:52.901Z,12.63
2023-05-11T02:32:02.229Z,12.53
2023-05-11T02:35:12.477Z,13.33
2023-05-11T02:38:18.426Z,12.87
2023-05-11T02:41:28.009Z,12.97
2023-05-11T02:44:36.147Z,13.47
2023-05-11T02:47:43.566Z,12.00
2023-05-11T02:50:49.060Z,12.93
2023-05-11T02:53:56.248Z,11.23
2023-05-11T02:57:00.123Z,11.30
2023-05-11T03:00:04.313Z,10.87
2023-05-11T03:03:07.869Z,11.17
2023-05-11T03:06:14.248Z,13.33
2023-05-11T03:09:19.532Z,11.50
2023-05-11T03:12:23.001Z,11.37
2023-05-11T03:15:26.523Z,11.13
2023-05-11T03:18:31.006Z,11.33
2023-05-11T03:21:37.341Z,11.10
2023-05-11T03:24:41.307Z,9.97
2023-05-11T03:27:46.454Z,10.97
2023-05-11T03:30:51.219Z,10.80
2023-05-11T03:33:54.593Z,10.67
2023-05-11T03:37:00.539Z,11.07
2023-05-11T03:40:05.341Z,11.70
2023-05-11T03:43:11.962Z,9.90
2023-05-11T03:46:21.448Z,9.87
2023-05-11T03:49:26.237Z,11.07
2023-05-11T03:52:31.750Z,10.27
2023-05-11T03:55:35.045Z,11.07
2023-05-11T03:58:40.499Z,10.93
2023-05-11T04:01:44.727Z,10.50
2023-05-11T04:04:49.154Z,10.93
2023-05-11T04:07:53.578Z,10.67
2023-05-11T04:10:56.817Z,10.77
2023-05-11T04:13:59.798Z,9.97
2023-05-11T04:17:02.919Z,11.50
2023-05-11T04:20:06.838Z,11.60
2023-05-11T04:23:12.245Z,10.10
2023-05-11T04:26:15.391Z,11.20
2023-05-11T04:29:18.493Z,10.83
2023-05-11T04:32:21.651Z,10.23
2023-05-11T04:35:25.076Z,10.73
2023-05-11T04:38:29.720Z,9.43
2023-05-11T04:41:33.085Z,9.27
2023-05-11T04:44:36.186Z,9.53
2023-05-11T04:47:39.189Z,10.17
2023-05-11T04:50:42.813Z,9.87
2023-05-11T04:53:47.585Z,9.37
2023-05-11T04:56:53.696Z,8.97
2023-05-11T04:59:56.994Z,8.77
2023-05-11T05:03:00.358Z,8.73
2023-05-11T05:06:04.039Z,9.50
2023-05-11T05:09:08.442Z,8.67
2023-05-11T05:12:11.534Z,7.70
2023-05-11T05:15:14.956Z,8.10
2023-05-11T05:18:18.246Z,8.60
2023-05-11T05:21:21.341Z,7.97
2023-05-11T05:24:25.842Z,8.30
2023-05-11T05:27:29.240Z,8.47
2023-05-11T05:30:37.077Z,7.73
2023-05-11T05:33:40.149Z,7.80
2023-05-11T05:36:43.801Z,8.30
2023-05-11T05:39:48.581Z,8.30
2023-05-11T05:42:51.762Z,8.10
2023-05-11T05:45:54.953Z,7.50
2023-05-11T05:49:02.651Z,7.73
2023-05-11T05:52:06.332Z,7.00
2023-05-11T05:55:11.150Z,7.93
2023-05-11T05:58:14.107Z,7.70
2023-05-11T06:01:17.192Z,7.17
2023-05-11T06:04:20.546Z,6.73
2023-05-11T06:07:23.619Z,6.70
2023-05-11T06:10:28.464Z,6.77
2023-05-11T06:13:31.593Z,7.13
2023-05-11T06:16:34.923Z,7.13
2023-05-11T06:19:38.605Z,5.80
2023-05-11T06:22:41.611Z,6.53
2023-05-11T06:25:45.955Z,6.73
2023-05-11T06:28:48.936Z,5.63
2023-05-11T06:31:52.978Z,5.70
2023-05-11T06:34:56.161Z,6.07
2023-05-11T06:37:59.256Z,5.60
2023-05-11T06:41:03.667Z,5.90
2023-05-11T06:44:07.141Z,5.50
2023-05-11T06:47:10.211Z,5.40
2023-05-11T06:50:13.222Z,5.80
2023-05-11T06:53:17.737Z,5.70
2023-05-11T06:56:22.468Z,5.60
2023-05-11T06:59:25.530Z,5.20
2023-05-11T07:02:28.725Z,5.30
2023-05-11T07:05:32.345Z,5.53
2023-05-11T07:08:35.282Z,5.60
2023-05-11T07:11:40.968Z,4.70
2023-05-11T07:14:43.986Z,4.73
2023-05-11T07:17:48.347Z,4.40
2023-05-11T07:20:51.394Z,4.40
2023-05-11T07:23:54.427Z,4.47
2023-05-11T07:26:58.757Z,4.30
2023-05-11T07:30:02.989Z,4.23
2023-05-11T07:33:06.690Z,4.13
2023-05-11T07:36:10.234Z,4.80
2023-05-11T07:39:13.280Z,4.40
2023-05-11T07:42:17.641Z,5.00
2023-05-11T07:45:21.145Z,4.33
2023-05-11T07:48:24.099Z,4.27
2023-05-11T07:51:27.302Z,4.17
2023-05-11T07:54:30.661Z,4.10
2023-05-11T07:57:35.062Z,4.40
2023-05-11T08:00:38.056Z,3.97
2023-05-11T08:03:41.215Z,4.40
2023-05-11T08:06:44.808Z,4.20
2023-05-11T08:09:47.840Z,4.10
2023-05-11T08:12:52.478Z,3.80
2023-05-11T08:15:55.554Z,3.70
2023-05-11T08:18:58.590Z,4.17
2023-05-11T08:22:02.074Z,4.10
2023-05-11T08:25:05.629Z,4.10
2023-05-11T08:28:09.970Z,4.80
2023-05-11T08:31:14.294Z,4.03
2023-05-11T08:34:20.208Z,4.40
2023-05-11T08:37:24.466Z,4.30
2023-05-11T08:40:28.752Z,4.40
2023-05-11T08:43:36.120Z,4.80
2023-05-11T08:46:42.876Z,3.90
2023-05-11T08:49:46.457Z,4.13
2023-05-11T08:52:49.486Z,4.00
2023-05-11T08:55:53.128Z,3.93
2023-05-11T08:58:58.562Z,4.27
2023-05-11T09:02:03.285Z,3.97
2023-05-11T09:05:07.649Z,4.30
2023-05-11T09:08:13.992Z,4.17
2023-05-11T09:11:17.549Z,4.10
2023-05-11T09:14:26.928Z,3.80
2023-05-11T09:17:30.350Z,4.23
2023-05-11T09:20:35.164Z,3.53
2023-05-11T09:23:38.420Z,4.10
2023-05-11T09:26:41.616Z,3.80
2023-05-11T09:29:51.828Z,3.57
2023-05-11T09:32:58.848Z,3.50
2023-05-11T09:36:02.908Z,3.70
2023-05-11T09:39:06.266Z,3.40
2023-05-11T09:42:16.526Z,3.83
2023-05-11T09:45:40.841Z,3.60
2023-05-11T09:48:43.820Z,3.50
2023-05-11T09:51:47.186Z,3.97
2023-05-11T09:54:52.092Z,3.30
2023-05-11T09:57:56.502Z,3.60
2023-05-11T10:01:01.101Z,3.20
2023-05-11T10:04:17.913Z,3.27
2023-05-11T10:07:26.853Z,3.40
2023-05-11T10:10:31.540Z,3.83
2023-05-11T10:13:40.126Z,3.70
2023-05-11T10:16:45.479Z,4.03
2023-05-11T10:19:50.006Z,3.80
2023-05-11T10:22:55.182Z,3.13
2023-05-11T10:25:59.292Z,3.37
2023-05-11T10:29:02.942Z,3.00
2023-05-11T10:32:08.663Z,3.20
2023-05-11T10:35:12.423Z,3.33
2023-05-11T10:38:17.079Z,3.30
2023-05-11T10:41:34.750Z,4.03
2023-05-11T10:45:03.047Z,3.40
2023-05-11T10:48:43.098Z,3.40
2023-05-11T10:52:19.300Z,3.80
2023-05-11T10:55:33.344Z,3.50
2023-05-11T10:58:50.564Z,3.40
2023-05-11T11:01:58.444Z,3.10
2023-05-11T11:05:05.812Z,3.10
2023-05-11T11:08:09.730Z,2.90
2023-05-11T11:11:31.002Z,2.93
2023-05-11T11:14:54.865Z,3.00
2023-05-11T11:18:20.774Z,3.20
2023-05-11T11:21:45.406Z,3.10
2023-05-11T11:24:48.722Z,3.40
2023-05-11T11:27:59.397Z,3.27
2023-05-11T11:31:25.489Z,4.13
2023-05-11T11:34:39.494Z,3.33
2023-05-11T11:38:08.038Z,2.90
2023-05-11T11:41:11.124Z,2.93
2023-05-11T11:44:22.687Z,3.70
2023-05-11T11:47:26.830Z,3.30
2023-05-11T11:50:30.138Z,3.20
2023-05-11T11:54:08.081Z,7.07
2023-05-11T11:57:49.223Z,3.27
2023-05-11T12:00:53.833Z,3.40
2023-05-11T12:04:39.286Z,4.63
2023-05-11T12:07:44.100Z,3.60
2023-05-11T12:10:58.542Z,2.93
2023-05-11T12:14:02.295Z,3.00
2023-05-11T12:17:13.543Z,3.10
2023-05-11T12:20:18.777Z,2.90
2023-05-11T12:23:22.389Z,3.10
2023-05-11T12:26:29.640Z,3.20
2023-05-11T12:29:33.161Z,2.60
2023-05-11T12:32:36.485Z,2.70
2023-05-11T12:35:40.432Z,2.80
2023-05-11T12:38:47.551Z,2.60
2023-05-11T12:41:53.920Z,3.10
2023-05-11T12:44:57.537Z,3.20
2023-05-11T12:48:01.697Z,3.30
2023-05-11T12:51:04.892Z,3.37
2023-05-11T12:54:08.079Z,3.33
2023-05-11T12:57:25.494Z,3.07
2023-05-11T13:00:28.787Z,3.03
2023-05-11T13:03:34.040Z,3.10
2023-05-11T13:06:39.396Z,3.40
2023-05-11T13:09:42.748Z,2.63
2023-05-11T13:12:54.590Z,3.80
2023-05-11T13:15:57.590Z,3.03
2023-05-11T13:19:01.367Z,2.63
2023-05-11T13:22:05.020Z,2.80
2023-05-11T13:25:09.510Z,2.93
2023-05-11T13:28:15.453Z,2.80
2023-05-11T13:31:19.379Z,2.70
2023-05-11T13:34:23.983Z,2.80
2023-05-11T13:37:27.121Z,3.50
2023-05-11T13:40:30.268Z,2.80
2023-05-11T13:43:34.666Z,2.87
2023-05-11T13:46:37.793Z,3.13
2023-05-11T13:49:42.208Z,3.07
2023-05-11T13:52:45.962Z,2.83
2023-05-11T13:55:48.987Z,3.30
2023-05-11T13:58:53.447Z,3.03
2023-05-11T14:01:56.576Z,3.30
2023-05-11T14:04:59.629Z,3.40
2023-05-11T14:08:02.698Z,3.50
2023-05-11T14:11:06.023Z,2.80
2023-05-11T14:14:10.520Z,3.60
2023-05-11T14:17:14.495Z,2.70
2023-05-11T14:20:17.861Z,5.40
2023-05-11T14:23:20.919Z,3.63
2023-05-11T14:26:24.003Z,3.03
2023-05-11T14:29:28.433Z,3.23
2023-05-11T14:32:31.670Z,3.20
2023-05-11T14:35:35.721Z,3.00
2023-05-11T14:38:40.448Z,3.30
2023-05-11T14:41:43.656Z,3.30
2023-05-11T14:44:48.077Z,3.30
2023-05-11T14:47:51.453Z,3.10
2023-05-11T14:50:54.853Z,3.17
2023-05-11T14:53:57.925Z,3.37
2023-05-11T14:57:01.240Z,3.83
2023-05-11T15:00:07.361Z,4.10
2023-05-11T15:03:11.034Z,3.47
2023-05-11T15:06:21.060Z,3.70
2023-05-11T15:09:24.181Z,3.50
2023-05-11T15:12:27.155Z,3.03
2023-05-11T15:15:31.917Z,2.80
2023-05-11T15:18:35.056Z,2.93
2023-05-11T15:21:38.269Z,3.27
2023-05-11T15:24:41.311Z,3.07
2023-05-11T15:27:44.417Z,3.40
2023-05-11T15:30:52.093Z,2.97
2023-05-11T15:33:55.182Z,2.90
2023-05-11T15:36:58.735Z,3.10
2023-05-11T15:40:01.833Z,3.53
2023-05-11T15:43:05.092Z,3.00
2023-05-11T15:46:09.505Z,2.80
2023-05-11T15:49:12.818Z,3.00
2023-05-11T15:52:15.865Z,2.77
2023-05-11T15:55:18.994Z,3.27
2023-05-11T15:58:22.279Z,3.00
2023-05-11T16:01:26.681Z,2.90
2023-05-11T16:04:29.653Z,3.43
2023-05-11T16:07:32.725Z,3.30
2023-05-11T16:10:36.409Z,3.03
2023-05-11T16:13:39.568Z,3.30
2023-05-11T16:16:44.503Z,3.57
2023-05-11T16:19:48.864Z,2.80
2023-05-11T16:22:52.215Z,2.60
2023-05-11T16:25:56.383Z,3.17
2023-05-11T16:28:59.365Z,3.10
2023-05-11T16:32:05.259Z,3.27
2023-05-11T16:35:08.845Z,3.43
2023-05-11T16:38:17.615Z,3.77
2023-05-11T16:41:20.596Z,3.13
2023-05-11T16:44:23.822Z,3.73
2023-05-11T16:47:28.364Z,3.27
2023-05-11T16:50:31.339Z,3.33
2023-05-11T16:53:34.607Z,3.50
2023-05-11T16:56:38.067Z,3.20
2023-05-11T16:59:41.228Z,4.10
2023-05-11T17:02:46.278Z,3.17
2023-05-11T17:05:49.374Z,3.10
2023-05-11T17:08:53.026Z,2.97
2023-05-11T17:11:56.716Z,2.70
2023-05-11T17:15:00.706Z,2.87
2023-05-11T17:18:05.368Z,2.77
2023-05-11T17:21:10.356Z,3.03
2023-05-11T17:24:13.479Z,2.97
2023-05-11T17:27:16.461Z,3.20
2023-05-11T17:30:19.688Z,3.17
2023-05-11T17:33:25.406Z,3.20
2023-05-11T17:36:29.908Z,3.00
2023-05-11T17:39:33.240Z,3.20
2023-05-11T17:42:36.421Z,2.83
2023-05-11T17:45:39.499Z,2.90
2023-05-11T17:48:43.996Z,3.23
2023-05-11T17:51:47.908Z,3.20
2023-05-11T17:54:51.120Z,3.20
2023-05-11T17:57:54.234Z,2.90
2023-05-11T18:00:57.339Z,3.27
2023-05-11T18:04:02.561Z,3.00
2023-05-11T18:07:07.445Z,3.30
2023-05-11T18:10:11.180Z,3.40
2023-05-11T18:13:15.267Z,3.53
2023-05-11T18:16:20.353Z,3.10
2023-05-11T18:19:24.758Z,3.40
2023-05-11T18:22:29.869Z,3.50
2023-05-11T18:25:36.104Z,3.60
2023-05-11T18:28:39.410Z,3.17
2023-05-11T18:31:42.567Z,3.93
2023-05-11T18:34:47.047Z,3.60
2023-05-11T18:37:50.664Z,3.83
2023-05-11T18:40:53.872Z,3.70
2023-05-11T18:43:57.196Z,4.07
2023-05-11T18:47:00.543Z,3.90
2023-05-11T18:50:05.470Z,3.83
2023-05-11T18:53:11.628Z,3.77
2023-05-11T18:56:14.839Z,4.13
2023-05-11T18:59:18.108Z,3.60
2023-05-11T19:02:21.281Z,4.00
2023-05-11T19:05:25.793Z,4.13
2023-05-11T19:08:28.825Z,4.00
2023-05-11T19:11:31.920Z,3.80
2023-05-11T19:14:35.601Z,3.77
2023-05-11T19:17:38.872Z,4.13
2023-05-11T19:20:43.522Z,4.00
2023-05-11T19:23:48.272Z,4.47
2023-05-11T19:27:05.340Z,4.10
2023-05-11T19:30:10.844Z,4.00
2023-05-11T19:33:19.783Z,4.20
2023-05-11T19:36:24.591Z,3.97
2023-05-11T19:39:27.879Z,4.77
2023-05-11T19:42:39.538Z,4.60
2023-05-11T19:45:43.570Z,4.50
2023-05-11T19:48:47.411Z,4.03
2023-05-11T19:51:52.280Z,4.47
2023-05-11T19:54:55.300Z,4.90
2023-05-11T19:57:58.338Z,4.63
2023-05-11T20:01:01.325Z,4.87
2023-05-11T20:04:04.624Z,4.50
2023-05-11T20:07:10.433Z,4.10
2023-05-11T20:10:13.903Z,4.50
2023-05-11T20:13:16.917Z,4.13
2023-05-11T20:16:19.985Z,4.40
2023-05-11T20:19:26.096Z,4.03
2023-05-11T20:22:32.473Z,4.40
2023-05-11T20:25:43.477Z,4.63
2023-05-11T20:28:46.442Z,4.03
2023-05-11T20:31:49.729Z,4.20
2023-05-11T20:34:52.932Z,4.03
2023-05-11T20:37:57.550Z,4.40
2023-05-11T20:41:00.588Z,4.60
2023-05-11T20:44:03.925Z,4.40
2023-05-11T20:47:09.526Z,4.43
2023-05-11T20:50:13.278Z,4.37
2023-05-11T20:53:17.667Z,4.63
2023-05-11T20:56:21.483Z,4.23
2023-05-11T21:02:30.574Z,4.63
2023-05-11T21:05:33.748Z,4.90
2023-05-11T21:08:38.206Z,4.50
2023-05-11T21:11:41.346Z,4.93
2023-05-11T21:14:44.353Z,4.67
2023-05-11T21:17:47.565Z,4.63
2023-05-11T21:20:50.562Z,4.53
2023-05-11T21:23:54.940Z,5.70
2023-05-11T21:26:58.181Z,5.37
2023-05-11T21:30:01.346Z,4.93
2023-05-11T21:33:04.563Z,6.07
2023-05-11T21:36:09.202Z,5.20
2023-05-11T21:39:14.064Z,5.43
2023-05-11T21:42:17.309Z,5.23
2023-05-11T21:45:20.754Z,5.57
2023-05-11T21:48:23.843Z,6.23
2023-05-11T21:51:26.914Z,5.80
2023-05-11T21:54:31.410Z,5.07
2023-05-11T21:57:34.682Z,5.30
2023-05-11T22:00:38.050Z,6.10
2023-05-11T22:03:41.210Z,6.27
2023-05-11T22:06:44.360Z,5.57
2023-05-11T22:09:49.134Z,5.63
2023-05-11T22:12:52.273Z,5.53
2023-05-11T22:15:58.860Z,5.67
2023-05-11T22:19:01.958Z,5.67
2023-05-11T22:22:05.182Z,5.37
2023-05-11T22:25:11.002Z,5.33
2023-05-11T22:28:14.038Z,4.87
2023-05-11T22:31:17.076Z,5.70
2023-05-11T22:34:21.563Z,5.70
2023-05-11T22:37:24.873Z,5.30
2023-05-11T22:40:29.463Z,5.70
2023-05-11T22:43:32.543Z,5.60
2023-05-11T22:46:35.603Z,5.30
2023-05-11T22:49:38.726Z,5.70
2023-05-11T22:52:42.159Z,5.60
2023-05-11T22:55:46.549Z,6.13
2023-05-11T22:58:49.550Z,5.80
2023-05-11T23:01:52.691Z,5.97
2023-05-11T23:04:56.104Z,5.50
2023-05-11T23:07:59.905Z,5.73
2023-05-11T23:11:04.621Z,5.80
2023-05-11T23:14:07.831Z,5.90
2023-05-11T23:17:11.276Z,5.87
2023-05-11T23:20:14.808Z,6.20
2023-05-11T23:23:18.155Z,6.23
2023-05-11T23:26:22.646Z,6.00
2023-05-11T23:29:28.033Z,6.20
2023-05-11T23:32:32.331Z,6.57
2023-05-11T23:35:35.643Z,5.60
2023-05-11T23:38:38.691Z,5.40
2023-05-11T23:41:43.512Z,5.97
2023-05-11T23:44:46.913Z,6.23
2023-05-11T23:47:51.823Z,5.73
2023-05-11T23:50:54.936Z,6.07
2023-05-11T23:53:57.936Z,6.03
2023-05-11T23:57:02.896Z,5.93
